Back to Top

Language: 

My Weather Underground Personal Weather Station Historical Data with Graphs...

Delerius Weather Station Historical Data
Daily Summary for April 18, 2017 Units:  Metric    English   Both
« Previous Day
Next Day »
Daily Weekly Monthly Yearly Custom
  High: Low: Average:
Temperature: 12 °C 0.6 °C 7.2 °C
Dew Point: 3.7 °C -1.5 °C 1.1 °C
Humidity: 88 % 41 % 67 %
Wind Speed: 16.1 km/h 0 km/h 6.3 km/h
Wind Gust: 30.6 km/h - -
Wind:- - SE
Pressure: 1036.1 hPa 1028 hPa -
Precipitation: 0 mm    
Historical Graphs
 
 
Tabular Data for April 18, 2017
Time Temperature Dew Point Pressure Wind Wind Speed Wind Gust Humidity Rainfall Rate (Hourly) solar Conditions
00:01 6.5 °C 3.7 °C 1028 hPa North 14.5 km/h 30.6 km/h 82 % 0 mm 0 W/m2
00:06 6.3 °C 3.4 °C 1028 hPa North 14.5 km/h 30.6 km/h 82 % 0 mm 0 W/m2
00:11 6.3 °C 3.4 °C 1028.3 hPa NNE 12.9 km/h 29 km/h 82 % 0 mm 0 W/m2
00:16 6.2 °C 3.3 °C 1028.3 hPa NNE 11.3 km/h 29 km/h 82 % 0 mm 0 W/m2
00:21 6.1 °C 3.1 °C 1028.3 hPa NNE 12.9 km/h 24.1 km/h 81 % 0 mm 0 W/m2
00:26 6 °C 3 °C 1028.3 hPa NNE 11.3 km/h 22.5 km/h 81 % 0 mm 0 W/m2
00:31 5.9 °C 2.9 °C 1028.3 hPa NNE 9.7 km/h 22.5 km/h 81 % 0 mm 0 W/m2
00:36 5.8 °C 2.8 °C 1028.7 hPa NNE 11.3 km/h 29 km/h 81 % 0 mm 0 W/m2
00:41 5.8 °C 2.8 °C 1028.7 hPa NNE 12.9 km/h 29 km/h 81 % 0 mm 0 W/m2
00:46 5.7 °C 2.7 °C 1028.7 hPa NNE 11.3 km/h 25.7 km/h 81 % 0 mm 0 W/m2
00:51 5.6 °C 2.4 °C 1028.7 hPa NNE 11.3 km/h 25.7 km/h 80 % 0 mm 0 W/m2
00:57 5.6 °C 2.4 °C 1029 hPa NNE 12.9 km/h 25.7 km/h 80 % 0 mm 0 W/m2
01:02 5.6 °C 2.4 °C 1029 hPa NNE 12.9 km/h 22.5 km/h 80 % 0 mm 0 W/m2
01:07 5.5 °C 2.2 °C 1029 hPa NNE 12.9 km/h 20.9 km/h 79 % 0 mm 0 W/m2
01:12 5.4 °C 2.1 °C 1029 hPa North 12.9 km/h 25.7 km/h 79 % 0 mm 0 W/m2
01:13 5.4 °C 1.9 °C 1029 hPa North 12.9 km/h 25.7 km/h 78 % 0 mm 0 W/m2
01:18 5.3 °C 1.9 °C 1029 hPa NNE 14.5 km/h 25.7 km/h 79 % 0 mm 0 W/m2
01:23 5.2 °C 1.8 °C 1029.3 hPa NNE 12.9 km/h 24.1 km/h 79 % 0 mm 0 W/m2
01:28 5.1 °C 1.8 °C 1029.3 hPa NNE 12.9 km/h 24.1 km/h 79 % 0 mm 0 W/m2
01:33 4.9 °C 1.4 °C 1029.3 hPa NNE 16.1 km/h 29 km/h 78 % 0 mm 0 W/m2
01:38 4.8 °C 1.3 °C 1029.3 hPa NNE 14.5 km/h 29 km/h 78 % 0 mm 0 W/m2
01:43 4.7 °C 1.2 °C 1029.3 hPa NNE 12.9 km/h 24.1 km/h 78 % 0 mm 0 W/m2
01:48 4.6 °C 1.1 °C 1029.3 hPa NNE 12.9 km/h 24.1 km/h 78 % 0 mm 0 W/m2
01:53 4.6 °C 0.9 °C 1029.3 hPa NNE 12.9 km/h 24.1 km/h 77 % 0 mm 0 W/m2
01:58 4.5 °C 0.6 °C 1029.3 hPa NNE 14.5 km/h 24.1 km/h 76 % 0 mm 0 W/m2
02:03 4.4 °C 0.6 °C 1029.7 hPa NNE 12.9 km/h 24.1 km/h 76 % 0 mm 0 W/m2
02:08 4.3 °C 0.4 °C 1029.7 hPa North 11.3 km/h 17.7 km/h 76 % 0 mm 0 W/m2
02:13 4.3 °C 0.3 °C 1029.3 hPa North 11.3 km/h 20.9 km/h 75 % 0 mm 0 W/m2
02:18 4.3 °C 0.3 °C 1029.3 hPa North 12.9 km/h 22.5 km/h 75 % 0 mm 0 W/m2
02:23 4.2 °C 0.3 °C 1029.3 hPa NNE 11.3 km/h 22.5 km/h 76 % 0 mm 0 W/m2
02:28 4.1 °C 0.2 °C 1029.3 hPa NNE 9.7 km/h 16.1 km/h 76 % 0 mm 0 W/m2
02:33 4.1 °C 0.1 °C 1029.3 hPa NNE 11.3 km/h 20.9 km/h 75 % 0 mm 0 W/m2
02:38 4.1 °C 0.2 °C 1029.3 hPa NNE 11.3 km/h 20.9 km/h 76 % 0 mm 0 W/m2
02:43 3.9 °C 0.1 °C 1029.3 hPa NNE 9.7 km/h 19.3 km/h 76 % 0 mm 0 W/m2
02:48 3.9 °C 0.1 °C 1029.3 hPa North 9.7 km/h 17.7 km/h 76 % 0 mm 0 W/m2
02:53 3.9 °C -0.1 °C 1029.3 hPa North 6.4 km/h 17.7 km/h 75 % 0 mm 0 W/m2
02:58 3.8 °C -0.1 °C 1029.7 hPa North 4.8 km/h 12.9 km/h 76 % 0 mm 0 W/m2
03:03 3.8 °C -0.1 °C 1029.7 hPa NNW 6.4 km/h 17.7 km/h 76 % 0 mm 0 W/m2
03:08 3.7 °C -0.2 °C 1029.7 hPa NNW 6.4 km/h 17.7 km/h 76 % 0 mm 0 W/m2
03:13 3.7 °C -0.2 °C 1029.7 hPa North 6.4 km/h 16.1 km/h 76 % 0 mm 0 W/m2
03:18 3.6 °C -0.2 °C 1029.7 hPa NNW 6.4 km/h 16.1 km/h 76 % 0 mm 0 W/m2
03:23 3.5 °C -0.2 °C 1029.7 hPa NNW 4.8 km/h 12.9 km/h 77 % 0 mm 0 W/m2
03:28 3.4 °C -0.3 °C 1029.7 hPa NNW 4.8 km/h 12.9 km/h 77 % 0 mm 0 W/m2
03:33 3.3 °C -0.3 °C 1029.7 hPa NNW 6.4 km/h 14.5 km/h 77 % 0 mm 0 W/m2
03:38 3.2 °C -0.3 °C 1029.7 hPa NNW 4.8 km/h 14.5 km/h 78 % 0 mm 0 W/m2
03:43 3.2 °C -0.3 °C 1029.7 hPa NNW 4.8 km/h 12.9 km/h 78 % 0 mm 0 W/m2
03:48 3.1 °C -0.4 °C 1030 hPa NNW 4.8 km/h 19.3 km/h 78 % 0 mm 0 W/m2
03:53 3.1 °C -0.4 °C 1030 hPa North 6.4 km/h 19.3 km/h 78 % 0 mm 0 W/m2
03:58 3.1 °C -0.4 °C 1030 hPa North 6.4 km/h 12.9 km/h 78 % 0 mm 0 W/m2
04:03 3.1 °C -0.2 °C 1030 hPa North 6.4 km/h 12.9 km/h 79 % 0 mm 0 W/m2
04:08 3 °C -0.3 °C 1030 hPa North 6.4 km/h 14.5 km/h 79 % 0 mm 0 W/m2
04:13 3 °C -0.3 °C 1030 hPa North 6.4 km/h 14.5 km/h 79 % 0 mm 0 W/m2
04:18 2.9 °C -0.4 °C 1030 hPa NNW 3.2 km/h 11.3 km/h 79 % 0 mm 0 W/m2
04:23 2.9 °C -0.4 °C 1030 hPa NNW 4.8 km/h 14.5 km/h 79 % 0 mm 0 W/m2
04:29 2.8 °C -0.5 °C 1030 hPa NNW 6.4 km/h 14.5 km/h 79 % 0 mm 0 W/m2
04:34 2.8 °C -0.5 °C 1030 hPa NNW 4.8 km/h 12.9 km/h 79 % 0 mm 0 W/m2
04:39 2.7 °C -0.6 °C 1030 hPa NNW 3.2 km/h 11.3 km/h 79 % 0 mm 0 W/m2
04:44 2.6 °C -0.5 °C 1030 hPa NW 1.6 km/h 9.7 km/h 80 % 0 mm 0 W/m2
04:49 2.4 °C -0.7 °C 1030.4 hPa NW 1.6 km/h 9.7 km/h 80 % 0 mm 0 W/m2
04:54 2.3 °C -0.8 °C 1030.4 hPa NNW 3.2 km/h 9.7 km/h 80 % 0 mm 0 W/m2
04:59 2.2 °C -0.7 °C 1030.4 hPa NNW 3.2 km/h 9.7 km/h 81 % 0 mm 0 W/m2
05:04 2.1 °C -0.8 °C 1030.4 hPa NW 1.6 km/h 8 km/h 81 % 0 mm 0 W/m2
05:09 1.9 °C -1 °C 1030.4 hPa NW 1.6 km/h 8 km/h 81 % 0 mm 0 W/m2
05:14 1.8 °C -0.9 °C 1030.4 hPa NW 1.6 km/h 8 km/h 82 % 0 mm 0 W/m2
05:19 1.8 °C -0.9 °C 1030.4 hPa NW 1.6 km/h 6.4 km/h 82 % 0 mm 0 W/m2
05:24 1.7 °C -1.1 °C 1030.7 hPa NW 1.6 km/h 6.4 km/h 82 % 0 mm 0 W/m2
05:29 1.6 °C -1 °C 1030.7 hPa NW 1.6 km/h 6.4 km/h 83 % 0 mm 0 W/m2
05:34 1.4 °C -1.2 °C 1030.7 hPa Calm   3.2 km/h 83 % 0 mm 0 W/m2
05:39 1.3 °C -1.3 °C 1030.7 hPa Calm   1.6 km/h 83 % 0 mm 0 W/m2
05:44 1.2 °C -1.2 °C 1030.7 hPa Calm   3.2 km/h 84 % 0 mm 0 W/m2
05:49 1.1 °C -1.3 °C 1031 hPa Calm   3.2 km/h 84 % 0 mm 0 W/m2
05:54 0.9 °C -1.3 °C 1031 hPa NW 1.6 km/h 8 km/h 85 % 0 mm 5 W/m2
05:59 0.9 °C -1.3 °C 1031 hPa WNW 3.2 km/h 9.7 km/h 85 % 0 mm 7 W/m2
06:04 0.8 °C -1.3 °C 1031 hPa WNW 3.2 km/h 9.7 km/h 86 % 0 mm 9 W/m2
06:09 0.8 °C -1.3 °C 1031 hPa WNW 3.2 km/h 8 km/h 86 % 0 mm 12 W/m2
06:14 0.8 °C -1.3 °C 1031 hPa WNW 1.6 km/h 6.4 km/h 86 % 0 mm 18 W/m2
06:19 0.7 °C -1.4 °C 1031.4 hPa Calm   3.2 km/h 86 % 0 mm 21 W/m2
06:24 0.6 °C -1.5 °C 1031.4 hPa Calm   3.2 km/h 86 % 0 mm 25 W/m2
06:29 0.6 °C -1.5 °C 1031 hPa Calm   4.8 km/h 86 % 0 mm 26 W/m2
06:34 0.6 °C -1.3 °C 1031.4 hPa Calm   4.8 km/h 87 % 0 mm 30 W/m2
06:39 0.6 °C -1.3 °C 1031.4 hPa Calm   1.6 km/h 87 % 0 mm 32 W/m2
06:44 0.6 °C -1.3 °C 1031.4 hPa Calm   1.6 km/h 87 % 0 mm 33 W/m2
06:49 0.7 °C -1.1 °C 1031.4 hPa Calm   3.2 km/h 88 % 0 mm 35 W/m2
06:50 0.7 °C -1.1 °C 1031.4 hPa Calm   3.2 km/h 88 % 0 mm 35 W/m2
06:55 0.8 °C -0.9 °C 1031.4 hPa Calm   3.2 km/h 88 % 0 mm 44 W/m2
07:00 0.8 °C -0.9 °C 1031.7 hPa Calm   3.2 km/h 88 % 0 mm 53 W/m2
07:05 0.9 °C -0.9 °C 1031.7 hPa Calm   3.2 km/h 88 % 0 mm 83 W/m2
07:10 1.2 °C -0.6 °C 1031.7 hPa Calm   3.2 km/h 88 % 0 mm 137 W/m2
07:15 1.5 °C -0.3 °C 1031.7 hPa Calm   3.2 km/h 88 % 0 mm 156 W/m2
07:16 1.6 °C -0.2 °C 1031.7 hPa Calm   3.2 km/h 88 % 0 mm 156 W/m2
07:21 2 °C 0.2 °C 1031.7 hPa Calm   3.2 km/h 88 % 0 mm 172 W/m2
07:26 2.4 °C 0.3 °C 1031.7 hPa Calm   3.2 km/h 86 % 0 mm 178 W/m2
07:31 2.7 °C 0.3 °C 1031.7 hPa WNW 1.6 km/h 6.4 km/h 84 % 0 mm 155 W/m2
07:36 2.8 °C 0.2 °C 1031.7 hPa WNW 1.6 km/h 6.4 km/h 83 % 0 mm 207 W/m2
07:41 3.2 °C 0.4 °C 1031.7 hPa NW 1.6 km/h 9.7 km/h 82 % 0 mm 223 W/m2
07:46 3.7 °C 0.6 °C 1032.1 hPa NNW 1.6 km/h 9.7 km/h 80 % 0 mm 232 W/m2
07:51 4.1 °C 0.6 °C 1032.1 hPa NW 1.6 km/h 9.7 km/h 78 % 0 mm 237 W/m2
07:56 4.6 °C 0.7 °C 1032.1 hPa NNW 3.2 km/h 11.3 km/h 76 % 0 mm 250 W/m2
08:01 5 °C 0.7 °C 1032.1 hPa NNW 4.8 km/h 12.9 km/h 74 % 0 mm 269 W/m2
08:06 5.3 °C 0.8 °C 1032.1 hPa NNW 4.8 km/h 12.9 km/h 73 % 0 mm 285 W/m2
08:11 5.5 °C 0.7 °C 1032.4 hPa NNW 6.4 km/h 16.1 km/h 71 % 0 mm 295 W/m2
08:16 5.6 °C 0.6 °C 1032.4 hPa NNW 8 km/h 16.1 km/h 70 % 0 mm 306 W/m2
08:21 5.8 °C 0.7 °C 1032.4 hPa NNW 6.4 km/h 16.1 km/h 70 % 0 mm 323 W/m2
08:26 6.1 °C 0.8 °C 1032.4 hPa NNW 6.4 km/h 14.5 km/h 69 % 0 mm 341 W/m2
08:31 6.4 °C 0.9 °C 1032.4 hPa NNW 6.4 km/h 16.1 km/h 68 % 0 mm 353 W/m2
08:36 6.6 °C 0.9 °C 1032.4 hPa NNW 6.4 km/h 16.1 km/h 67 % 0 mm 366 W/m2
08:41 6.7 °C 1 °C 1032.7 hPa NNW 6.4 km/h 16.1 km/h 67 % 0 mm 380 W/m2
08:46 6.8 °C 0.9 °C 1032.7 hPa NNW 6.4 km/h 14.5 km/h 66 % 0 mm 396 W/m2
08:51 7 °C 0.9 °C 1032.7 hPa NNW 8 km/h 16.1 km/h 65 % 0 mm 468 W/m2
08:56 7.2 °C 1.1 °C 1032.7 hPa NNW 6.4 km/h 16.1 km/h 65 % 0 mm 432 W/m2
09:01 7.4 °C 1.2 °C 1032.7 hPa North 6.4 km/h 14.5 km/h 65 % 0 mm 446 W/m2
09:06 7.5 °C 0.9 °C 1032.7 hPa North 9.7 km/h 19.3 km/h 63 % 0 mm 461 W/m2
09:11 7.5 °C 1.1 °C 1032.7 hPa North 9.7 km/h 19.3 km/h 64 % 0 mm 469 W/m2
09:16 7.6 °C 1 °C 1032.7 hPa North 9.7 km/h 19.3 km/h 63 % 0 mm 480 W/m2
09:21 7.7 °C 1.1 °C 1032.7 hPa North 9.7 km/h 19.3 km/h 63 % 0 mm 501 W/m2
09:27 7.7 °C 1.1 °C 1032.7 hPa NNE 8 km/h 17.7 km/h 63 % 0 mm 515 W/m2
09:32 7.7 °C 0.9 °C 1032.7 hPa NE 6.4 km/h 17.7 km/h 62 % 0 mm 522 W/m2
09:37 7.7 °C 0.7 °C 1032.7 hPa NE 4.8 km/h 12.9 km/h 61 % 0 mm 533 W/m2
09:42 7.8 °C 0.7 °C 1032.7 hPa NE 6.4 km/h 17.7 km/h 61 % 0 mm 550 W/m2
09:47 7.8 °C 0.5 °C 1032.7 hPa NNE 8 km/h 17.7 km/h 60 % 0 mm 564 W/m2
09:52 8.1 °C 0.6 °C 1032.7 hPa North 3.2 km/h 12.9 km/h 59 % 0 mm 575 W/m2
09:57 8.4 °C 1.1 °C 1033.1 hPa North 3.2 km/h 14.5 km/h 60 % 0 mm 596 W/m2
10:02 8.6 °C 0.8 °C 1033.1 hPa NE 8 km/h 17.7 km/h 58 % 0 mm 603 W/m2
10:07 8.5 °C 0.7 °C 1033.1 hPa NE 9.7 km/h 19.3 km/h 58 % 0 mm 622 W/m2
10:12 8.6 °C 1.1 °C 1033.1 hPa NE 4.8 km/h 19.3 km/h 59 % 0 mm 628 W/m2
10:17 8.8 °C 1 °C 1033.1 hPa NNE 3.2 km/h 14.5 km/h 58 % 0 mm 636 W/m2
10:22 8.9 °C 1.1 °C 1033.1 hPa NNE 4.8 km/h 17.7 km/h 58 % 0 mm 666 W/m2
10:27 9 °C 0.7 °C 1033.1 hPa North 8 km/h 17.7 km/h 56 % 0 mm 654 W/m2
10:32 8.8 °C 0.5 °C 1033.1 hPa NE 11.3 km/h 17.7 km/h 56 % 0 mm 700 W/m2
10:37 8.8 °C 0.5 °C 1033.1 hPa ENE 9.7 km/h 17.7 km/h 56 % 0 mm 751 W/m2
10:42 8.7 °C 1.1 °C 1033.1 hPa NE 9.7 km/h 19.3 km/h 59 % 0 mm 752 W/m2
10:47 8.7 °C 0.7 °C 1033.1 hPa NE 9.7 km/h 20.9 km/h 57 % 0 mm 775 W/m2
10:52 8.8 °C 1.4 °C 1033.1 hPa ENE 8 km/h 20.9 km/h 60 % 0 mm 796 W/m2
10:57 9 °C 0.9 °C 1033.1 hPa ENE 8 km/h 20.9 km/h 57 % 0 mm 770 W/m2
11:02 9 °C 1.2 °C 1033.1 hPa NE 9.7 km/h 20.9 km/h 58 % 0 mm 169 W/m2
11:07 8.8 °C 1 °C 1033.1 hPa NE 8 km/h 20.9 km/h 58 % 0 mm 202 W/m2
11:12 8.5 °C 0.9 °C 1033.1 hPa NE 8 km/h 20.9 km/h 59 % 0 mm 192 W/m2
11:17 8.3 °C 1 °C 1033.1 hPa NE 9.7 km/h 20.9 km/h 60 % 0 mm 229 W/m2
11:22 8.2 °C 1.1 °C 1033.4 hPa NE 9.7 km/h 20.9 km/h 61 % 0 mm 860 W/m2
11:27 8.5 °C 1.4 °C 1033.4 hPa NE 11.3 km/h 20.9 km/h 61 % 0 mm 821 W/m2
11:32 8.7 °C 1.3 °C 1033.1 hPa ENE 9.7 km/h 19.3 km/h 60 % 0 mm 884 W/m2
11:37 9.2 °C 1.6 °C 1033.1 hPa East 9.7 km/h 17.7 km/h 59 % 0 mm 881 W/m2
11:42 9.7 °C 1.8 °C 1033.1 hPa ENE 8 km/h 16.1 km/h 58 % 0 mm 856 W/m2
11:47 9.8 °C 1.7 °C 1033.1 hPa ENE 6.4 km/h 16.1 km/h 57 % 0 mm 856 W/m2
11:52 9.7 °C 1.3 °C 1033.1 hPa ENE 9.7 km/h 22.5 km/h 56 % 0 mm 847 W/m2
11:57 9.8 °C 1.4 °C 1033.1 hPa NE 11.3 km/h 22.5 km/h 56 % 0 mm 197 W/m2
12:02 9.6 °C 1.5 °C 1033.1 hPa NE 11.3 km/h 22.5 km/h 57 % 0 mm 803 W/m2
12:07 9.8 °C 1.7 °C 1033.1 hPa ENE 9.7 km/h 22.5 km/h 57 % 0 mm 838 W/m2
12:12 9.9 °C 1.8 °C 1033.1 hPa ENE 8 km/h 17.7 km/h 57 % 0 mm 809 W/m2
12:18 10.1 °C 2.2 °C 1033.1 hPa ENE 9.7 km/h 20.9 km/h 58 % 0 mm 564 W/m2
12:23 10.1 °C 2.2 °C 1033.1 hPa ENE 11.3 km/h 20.9 km/h 58 % 0 mm 339 W/m2
12:28 10.1 °C 2.2 °C 1033.1 hPa ENE 9.7 km/h 19.3 km/h 58 % 0 mm 800 W/m2
12:33 10.3 °C 1.9 °C 1033.1 hPa NE 9.7 km/h 17.7 km/h 56 % 0 mm 851 W/m2
12:38 10.4 °C 2 °C 1033.1 hPa NE 8 km/h 17.7 km/h 56 % 0 mm 805 W/m2
12:43 10.6 °C 1.7 °C 1033.1 hPa NNE 8 km/h 19.3 km/h 54 % 0 mm 406 W/m2
12:48 10.6 °C 1.2 °C 1033.1 hPa ENE 8 km/h 19.3 km/h 52 % 0 mm 838 W/m2
12:53 10.9 °C 1.4 °C 1033.1 hPa East 8 km/h 17.7 km/h 52 % 0 mm 385 W/m2
12:58 10.7 °C 1.2 °C 1033.1 hPa ENE 9.7 km/h 17.7 km/h 52 % 0 mm 352 W/m2
13:03 10.6 °C 1.9 °C 1033.1 hPa NE 9.7 km/h 22.5 km/h 55 % 0 mm 322 W/m2
13:08 10.2 °C 1.3 °C 1033.1 hPa NE 11.3 km/h 22.5 km/h 54 % 0 mm 352 W/m2
13:13 10.1 °C 1.4 °C 1033.1 hPa NE 9.7 km/h 19.3 km/h 55 % 0 mm 844 W/m2
13:18 10.4 °C 2 °C 1033.1 hPa NE 6.4 km/h 19.3 km/h 56 % 0 mm 940 W/m2
13:23 10.8 °C 1.6 °C 1033.1 hPa ENE 6.4 km/h 16.1 km/h 53 % 0 mm 951 W/m2
13:28 10.8 °C 1.6 °C 1033.1 hPa NE 6.4 km/h 14.5 km/h 53 % 0 mm 297 W/m2
13:33 10.7 °C 1.5 °C 1033.1 hPa NNE 8 km/h 20.9 km/h 53 % 0 mm 311 W/m2
13:38 10.4 °C 1.2 °C 1033.1 hPa NE 11.3 km/h 20.9 km/h 53 % 0 mm 267 W/m2
13:43 10.3 °C 1.4 °C 1033.1 hPa ENE 8 km/h 19.3 km/h 54 % 0 mm 821 W/m2
13:48 10.4 °C 0.9 °C 1033.1 hPa East 8 km/h 17.7 km/h 52 % 0 mm 816 W/m2
13:53 10.6 °C 1.2 °C 1033.1 hPa ENE 9.7 km/h 20.9 km/h 52 % 0 mm 874 W/m2
13:58 10.9 °C 1.4 °C 1033.1 hPa ENE 9.7 km/h 20.9 km/h 52 % 0 mm 881 W/m2
14:03 11.1 °C 1.3 °C 1033.1 hPa NE 6.4 km/h 16.1 km/h 51 % 0 mm 947 W/m2
14:08 11.6 °C 1.8 °C 1033.1 hPa NE 4.8 km/h 17.7 km/h 51 % 0 mm 188 W/m2
14:13 11.2 °C 0.9 °C 1033.1 hPa NE 9.7 km/h 17.7 km/h 49 % 0 mm 200 W/m2
14:18 10.9 °C 1.2 °C 1033.1 hPa NE 8 km/h 17.7 km/h 51 % 0 mm 863 W/m2
14:23 10.9 °C 0.6 °C 1033.1 hPa ENE 6.4 km/h 14.5 km/h 49 % 0 mm 190 W/m2
14:28 11 °C 0.7 °C 1033.1 hPa East 6.4 km/h 14.5 km/h 49 % 0 mm 802 W/m2
14:33 11.2 °C 0.6 °C 1033.1 hPa East 6.4 km/h 12.9 km/h 48 % 0 mm 814 W/m2
14:38 11.3 °C 0.9 °C 1033.1 hPa East 4.8 km/h 12.9 km/h 49 % 0 mm 853 W/m2
14:43 11.6 °C 1.5 °C 1033.1 hPa East 4.8 km/h 12.9 km/h 50 % 0 mm 923 W/m2
14:48 11.8 °C 1.4 °C 1033.1 hPa East 4.8 km/h 22.5 km/h 49 % 0 mm 896 W/m2
14:53 12 °C 1.3 °C 1033.1 hPa ENE 8 km/h 22.5 km/h 48 % 0 mm 865 W/m2
14:58 11.8 °C 1.1 °C 1033.1 hPa NE 8 km/h 16.1 km/h 48 % 0 mm 260 W/m2
15:03 11.6 °C 0.7 °C 1033.1 hPa ENE 8 km/h 16.1 km/h 47 % 0 mm 828 W/m2
15:08 11.2 °C 0.3 °C 1033.1 hPa ENE 11.3 km/h 19.3 km/h 47 % 0 mm 232 W/m2
15:10 11 °C 0.4 °C 1033.1 hPa ENE 11.3 km/h 19.3 km/h 48 % 0 mm 197 W/m2
15:15 10.7 °C 0.7 °C 1033.1 hPa ENE 8 km/h 17.7 km/h 50 % 0 mm 408 W/m2
15:20 10.8 °C 0.2 °C 1033.1 hPa ENE 4.8 km/h 14.5 km/h 48 % 0 mm 752 W/m2
15:25 10.9 °C 0 °C 1033.1 hPa ENE 6.4 km/h 17.7 km/h 47 % 0 mm 696 W/m2
15:30 11.1 °C -0.1 °C 1033.1 hPa ENE 4.8 km/h 17.7 km/h 46 % 0 mm 640 W/m2
15:35 11.3 °C -0.6 °C 1033.1 hPa SE 3.2 km/h 9.7 km/h 44 % 0 mm 489 W/m2
15:40 11.6 °C -0.3 °C 1033.1 hPa South 1.6 km/h 9.7 km/h 44 % 0 mm 519 W/m2
15:45 11.8 °C -0.1 °C 1033.1 hPa ENE 1.6 km/h 17.7 km/h 44 % 0 mm 408 W/m2
15:50 11.7 °C 0.7 °C 1033.1 hPa NE 6.4 km/h 19.3 km/h 47 % 0 mm 318 W/m2
15:55 11.4 °C 0.5 °C 1033.1 hPa ENE 9.7 km/h 19.3 km/h 47 % 0 mm 330 W/m2
16:00 11.3 °C 0.1 °C 1033.1 hPa East 8 km/h 16.1 km/h 46 % 0 mm 359 W/m2
16:05 11.3 °C 0.1 °C 1033.1 hPa ESE 8 km/h 16.1 km/h 46 % 0 mm 427 W/m2
16:11 11.5 °C -0.1 °C 1033.1 hPa ESE 6.4 km/h 14.5 km/h 45 % 0 mm 432 W/m2
16:16 11.6 °C -0.9 °C 1033.1 hPa ESE 6.4 km/h 14.5 km/h 42 % 0 mm 445 W/m2
16:21 11.6 °C -0.3 °C 1033.1 hPa East 6.4 km/h 14.5 km/h 44 % 0 mm 552 W/m2
16:26 11.4 °C -0.1 °C 1033.1 hPa ENE 8 km/h 20.9 km/h 45 % 0 mm 592 W/m2
16:31 11.4 °C 0.2 °C 1033.1 hPa ENE 9.7 km/h 20.9 km/h 46 % 0 mm 570 W/m2
16:36 11.4 °C 0.2 °C 1033.1 hPa East 9.7 km/h 17.7 km/h 46 % 0 mm 487 W/m2
16:41 11.4 °C 0.2 °C 1033.1 hPa East 9.7 km/h 19.3 km/h 46 % 0 mm 499 W/m2
16:46 11.4 °C 0.2 °C 1033.1 hPa ENE 8 km/h 19.3 km/h 46 % 0 mm 431 W/m2
16:51 11.5 °C -0.1 °C 1033.1 hPa East 4.8 km/h 12.9 km/h 45 % 0 mm 450 W/m2
16:56 11.5 °C -0.1 °C 1033.1 hPa East 6.4 km/h 16.1 km/h 45 % 0 mm 487 W/m2
17:01 11.5 °C -0.3 °C 1033.1 hPa ESE 9.7 km/h 16.1 km/h 44 % 0 mm 510 W/m2
17:06 11.7 °C -0.5 °C 1033.1 hPa SE 8 km/h 17.7 km/h 43 % 0 mm 417 W/m2
17:11 11.6 °C -0.9 °C 1033.1 hPa ESE 8 km/h 17.7 km/h 42 % 0 mm 246 W/m2
17:16 11.3 °C -1.5 °C 1033.4 hPa East 8 km/h 14.5 km/h 41 % 0 mm 244 W/m2
17:21 11.2 °C -0.9 °C 1033.4 hPa East 6.4 km/h 14.5 km/h 43 % 0 mm 267 W/m2
17:26 11.2 °C 0 °C 1033.4 hPa ESE 6.4 km/h 14.5 km/h 46 % 0 mm 364 W/m2
17:31 11.1 °C 0.5 °C 1033.4 hPa East 6.4 km/h 17.7 km/h 48 % 0 mm 332 W/m2
17:36 11.1 °C 0.8 °C 1033.4 hPa NE 6.4 km/h 17.7 km/h 49 % 0 mm 176 W/m2
17:41 10.8 °C -0.4 °C 1033.4 hPa NE 8 km/h 14.5 km/h 46 % 0 mm 178 W/m2
17:46 10.7 °C -0.4 °C 1033.4 hPa ENE 8 km/h 16.1 km/h 46 % 0 mm 197 W/m2
17:51 10.6 °C 0.1 °C 1033.7 hPa ENE 6.4 km/h 16.1 km/h 48 % 0 mm 200 W/m2
17:56 10.6 °C 0.9 °C 1033.7 hPa East 4.8 km/h 11.3 km/h 51 % 0 mm 186 W/m2
18:01 10.6 °C 0.6 °C 1033.7 hPa ESE 6.4 km/h 19.3 km/h 50 % 0 mm 167 W/m2
18:06 10.6 °C 0.6 °C 1033.7 hPa ESE 9.7 km/h 19.3 km/h 50 % 0 mm 130 W/m2
18:11 10.5 °C 0.8 °C 1033.7 hPa ESE 8 km/h 17.7 km/h 51 % 0 mm 125 W/m2
18:12 10.4 °C 0.7 °C 1033.7 hPa ESE 9.7 km/h 17.7 km/h 51 % 0 mm 127 W/m2
18:17 10.4 °C 0.9 °C 1033.7 hPa East 6.4 km/h 16.1 km/h 52 % 0 mm 123 W/m2
18:22 10.3 °C 1.4 °C 1033.7 hPa East 6.4 km/h 12.9 km/h 54 % 0 mm 107 W/m2
18:27 10.2 °C 1.3 °C 1033.7 hPa ENE 4.8 km/h 12.9 km/h 54 % 0 mm 90 W/m2
18:28 10.2 °C 1.3 °C 1033.7 hPa ENE 4.8 km/h 12.9 km/h 54 % 0 mm 90 W/m2
18:32 10.2 °C 1.6 °C 1033.7 hPa East 4.8 km/h 12.9 km/h 55 % 0 mm 84 W/m2
18:37 10 °C 1.4 °C 1034.1 hPa East 4.8 km/h 11.3 km/h 55 % 0 mm 79 W/m2
18:43 9.9 °C 1.3 °C 1034.1 hPa East 4.8 km/h 12.9 km/h 55 % 0 mm 81 W/m2
18:48 9.8 °C 1.2 °C 1034.1 hPa East 4.8 km/h 12.9 km/h 55 % 0 mm 81 W/m2
18:53 9.8 °C 1.4 °C 1034.1 hPa East 6.4 km/h 12.9 km/h 56 % 0 mm 100 W/m2
18:58 9.7 °C 1.8 °C 1034.1 hPa East 8 km/h 17.7 km/h 58 % 0 mm 74 W/m2
19:03 9.6 °C 2.2 °C 1034.1 hPa East 8 km/h 17.7 km/h 60 % 0 mm 95 W/m2
19:08 9.5 °C 2.3 °C 1034.4 hPa East 8 km/h 14.5 km/h 61 % 0 mm 76 W/m2
19:13 9.4 °C 2.3 °C 1034.4 hPa East 6.4 km/h 14.5 km/h 61 % 0 mm 62 W/m2
19:18 9.3 °C 2.4 °C 1034.1 hPa East 6.4 km/h 12.9 km/h 62 % 0 mm 60 W/m2
19:23 9.2 °C 2.3 °C 1034.1 hPa East 4.8 km/h 12.9 km/h 62 % 0 mm 54 W/m2
19:28 9.2 °C 2.5 °C 1034.1 hPa East 3.2 km/h 11.3 km/h 63 % 0 mm 32 W/m2
19:33 9.1 °C 2.4 °C 1034.4 hPa East 4.8 km/h 11.3 km/h 63 % 0 mm 25 W/m2
19:38 8.9 °C 2.4 °C 1034.4 hPa East 4.8 km/h 11.3 km/h 64 % 0 mm 19 W/m2
19:43 8.8 °C 2.6 °C 1034.4 hPa East 3.2 km/h 9.7 km/h 65 % 0 mm 19 W/m2
19:48 8.7 °C 2.7 °C 1034.4 hPa East 3.2 km/h 11.3 km/h 66 % 0 mm 18 W/m2
19:53 8.6 °C 2.6 °C 1034.4 hPa East 4.8 km/h 11.3 km/h 66 % 0 mm 14 W/m2
19:58 8.5 °C 2.5 °C 1034.4 hPa East 4.8 km/h 11.3 km/h 66 % 0 mm 9 W/m2
20:03 8.4 °C 2.6 °C 1034.4 hPa East 4.8 km/h 11.3 km/h 67 % 0 mm 5 W/m2
20:08 8.3 °C 2.5 °C 1034.4 hPa ESE 3.2 km/h 9.7 km/h 67 % 0 mm 0 W/m2
20:13 8.2 °C 2.7 °C 1034.4 hPa ESE 3.2 km/h 9.7 km/h 68 % 0 mm 0 W/m2
20:18 8.1 °C 2.6 °C 1034.4 hPa ESE 3.2 km/h 9.7 km/h 68 % 0 mm 0 W/m2
20:19 8.1 °C 2.6 °C 1034.4 hPa ESE 3.2 km/h 9.7 km/h 68 % 0 mm 0 W/m2
20:24 8.1 °C 2.8 °C 1034.4 hPa ESE 3.2 km/h 9.7 km/h 69 % 0 mm 0 W/m2
20:29 8 °C 2.7 °C 1034.4 hPa ESE 3.2 km/h 9.7 km/h 69 % 0 mm 0 W/m2
20:34 8 °C 2.7 °C 1034.4 hPa ESE 3.2 km/h 9.7 km/h 69 % 0 mm 0 W/m2
20:39 7.9 °C 2.6 °C 1034.4 hPa ESE 4.8 km/h 11.3 km/h 69 % 0 mm 0 W/m2
20:44 7.9 °C 2.8 °C 1034.4 hPa ESE 4.8 km/h 11.3 km/h 70 % 0 mm 0 W/m2
20:49 7.8 °C 2.9 °C 1034.8 hPa ESE 4.8 km/h 12.9 km/h 71 % 0 mm 0 W/m2
20:54 7.8 °C 3.1 °C 1034.8 hPa ESE 3.2 km/h 12.9 km/h 72 % 0 mm 0 W/m2
20:59 7.8 °C 3.1 °C 1034.8 hPa ESE 1.6 km/h 9.7 km/h 72 % 0 mm 0 W/m2
21:04 7.8 °C 3.1 °C 1034.8 hPa SE 3.2 km/h 11.3 km/h 72 % 0 mm 0 W/m2
21:09 7.8 °C 3.3 °C 1034.8 hPa SE 4.8 km/h 12.9 km/h 73 % 0 mm 0 W/m2
21:14 7.7 °C 3.3 °C 1034.8 hPa SE 6.4 km/h 12.9 km/h 74 % 0 mm 0 W/m2
21:19 7.7 °C 3.3 °C 1034.8 hPa SE 6.4 km/h 12.9 km/h 74 % 0 mm 0 W/m2
21:24 7.6 °C 3.3 °C 1035.1 hPa SE 6.4 km/h 12.9 km/h 74 % 0 mm 0 W/m2
21:29 7.6 °C 3.4 °C 1035.1 hPa SE 4.8 km/h 12.9 km/h 75 % 0 mm 0 W/m2
21:34 7.6 °C 3.4 °C 1035.1 hPa SE 3.2 km/h 11.3 km/h 75 % 0 mm 0 W/m2
21:39 7.6 °C 3.4 °C 1035.1 hPa SE 4.8 km/h 11.3 km/h 75 % 0 mm 0 W/m2
21:44 7.5 °C 3.3 °C 1035.1 hPa SE 6.4 km/h 16.1 km/h 75 % 0 mm 0 W/m2
21:49 7.4 °C 3.4 °C 1035.1 hPa ESE 6.4 km/h 16.1 km/h 76 % 0 mm 0 W/m2
21:54 7.3 °C 3.3 °C 1035.1 hPa ESE 6.4 km/h 12.9 km/h 76 % 0 mm 0 W/m2
21:59 7.3 °C 3.3 °C 1035.1 hPa ESE 6.4 km/h 12.9 km/h 76 % 0 mm 0 W/m2
22:04 7.2 °C 3.4 °C 1035.1 hPa SE 6.4 km/h 12.9 km/h 77 % 0 mm 0 W/m2
22:09 7.2 °C 3.4 °C 1035.1 hPa SE 6.4 km/h 12.9 km/h 77 % 0 mm 0 W/m2
22:14 7.1 °C 3.3 °C 1035.1 hPa SE 6.4 km/h 12.9 km/h 77 % 0 mm 0 W/m2
22:19 7.1 °C 3.5 °C 1035.4 hPa SE 4.8 km/h 11.3 km/h 78 % 0 mm 0 W/m2
22:24 7 °C 3.4 °C 1035.4 hPa SE 3.2 km/h 9.7 km/h 78 % 0 mm 0 W/m2
22:29 6.9 °C 3.3 °C 1035.4 hPa ESE 3.2 km/h 11.3 km/h 78 % 0 mm 0 W/m2
22:34 6.9 °C 3.3 °C 1035.4 hPa SE 3.2 km/h 11.3 km/h 78 % 0 mm 0 W/m2
22:39 6.8 °C 3.4 °C 1035.4 hPa SE 4.8 km/h 11.3 km/h 79 % 0 mm 0 W/m2
22:44 6.8 °C 3.4 °C 1035.4 hPa SE 3.2 km/h 9.7 km/h 79 % 0 mm 0 W/m2
22:49 6.7 °C 3.3 °C 1035.4 hPa SE 1.6 km/h 8 km/h 79 % 0 mm 0 W/m2
22:54 6.7 °C 3.3 °C 1035.8 hPa SE 1.6 km/h 6.4 km/h 79 % 0 mm 0 W/m2
22:59 6.6 °C 3.4 °C 1035.8 hPa SE 1.6 km/h 8 km/h 80 % 0 mm 0 W/m2
23:04 6.6 °C 3.4 °C 1035.8 hPa SE 1.6 km/h 8 km/h 80 % 0 mm 0 W/m2
23:09 6.6 °C 3.4 °C 1035.8 hPa SE 1.6 km/h 6.4 km/h 80 % 0 mm 0 W/m2
23:14 6.5 °C 3.3 °C 1035.8 hPa ESE 1.6 km/h 6.4 km/h 80 % 0 mm 0 W/m2
23:19 6.5 °C 3.3 °C 1035.8 hPa SE 3.2 km/h 8 km/h 80 % 0 mm 0 W/m2
23:24 6.5 °C 3.3 °C 1035.8 hPa SE 1.6 km/h 8 km/h 80 % 0 mm 0 W/m2
23:29 6.4 °C 3.2 °C 1035.8 hPa SE 1.6 km/h 6.4 km/h 80 % 0 mm 0 W/m2
23:34 6.4 °C 3.2 °C 1036.1 hPa Calm   4.8 km/h 80 % 0 mm 0 W/m2
23:39 6.4 °C 3.2 °C 1036.1 hPa Calm   1.6 km/h 80 % 0 mm 0 W/m2
23:44 6.4 °C 3.2 °C 1036.1 hPa Calm   3.2 km/h 80 % 0 mm 0 W/m2
23:49 6.3 °C 3.1 °C 1036.1 hPa SE 1.6 km/h 3.2 km/h 80 % 0 mm 0 W/m2
23:54 6.3 °C 3.1 °C 1036.1 hPa SE 1.6 km/h 8 km/h 80 % 0 mm 0 W/m2
23:59 6.3 °C 3.1 °C 1036.1 hPa SE 3.2 km/h 8 km/h 80 % 0 mm 0 W/m2
Delerius-Weather
Compliments of Weather Underground - 2.25 mb

Data updates at regular intervals.